• Join FlightAware (Why Join?)
  • Login
  • US Flag 
06:03AM EDT


 

Airport Tracker/Info


-or-


 

Live Flight TrackerFlight Track Log ✈ N36715 ✈ 20-May-2013 ✈ YBCG / OOL - YSUN

Flight Track Log - Related Links

Times and Time Zones

All times are in EDT time to prevent confusion due to time zone crossing. See the N36715 flight status page for this flight to view local times or setup timezone preferences in your user account.

Time Position Orientation Groundspeed Altitude Reporting Facility
EDT Latitude Longitude Course Direction KTS MPH feet Rate Location/Type
04:38PM -28.1960 153.5231 252° West 158 182 1,400  Level Aus ATC (RADAR)
04:39PM -28.2119 153.4681 252° West 166 191 3,800 2,160 Climbing Aus ATC (RADAR)
04:40PM -28.2398 153.4246 234° Southwest 173 199 6,000 2,100 Climbing Aus ATC (RADAR)
04:41PM -28.2781 153.3841 223° Southwest 172 198 8,200 1,980 Climbing Aus ATC (RADAR)
04:42PM -28.3128 153.3468 223° Southwest 170 196 10,200 1,920 Climbing Aus ATC (RADAR)
04:43PM -28.3510 153.3058 223° Southwest 173 199 12,200 1,740 Climbing Aus ATC (RADAR)
04:44PM -28.3868 153.2671 224° Southwest 175 201 13,900 1,680 Climbing Aus ATC (RADAR)
04:45PM -28.4256 153.2257 223° Southwest 177 204 15,700 1,560 Climbing Aus ATC (RADAR)
04:46PM -28.4616 153.1864 224° Southwest 181 208 17,200 780 Climbing Aus ATC (RADAR)
04:48PM -28.5445 153.0964 224° Southwest 232 267 18,200 300 Climbing Aus ATC (RADAR)
04:49PM -28.5812 153.0571 223° Southwest 243 280 18,100 -120 Descending Aus ATC (RADAR)
04:50PM -28.6103 153.0257 223° Southwest 248 285 18,100  Level Aus ATC (RADAR)
04:51PM -28.6608 152.9715 223° Southwest 251 289 18,100  Level Aus ATC (RADAR)
04:52PM -28.7283 152.8981 224° Southwest 251 289 18,100  Level Aus ATC (RADAR)
04:53PM -28.7833 152.8381 224° Southwest 253 291 18,100  Level Aus ATC (RADAR)
04:54PM -28.8384 152.7791 223° Southwest 252 290 18,100  Level Aus ATC (RADAR)
04:55PM -28.8892 152.7236 224° Southwest 253 291 18,100  Level Aus ATC (RADAR)
04:56PM -28.9439 152.6637 224° Southwest 252 290 18,100  Level Aus ATC (RADAR)
04:57PM -28.9990 152.6040 223° Southwest 253 291 18,100  Level Aus ATC (RADAR)
04:58PM -29.0500 152.5483 224° Southwest 254 292 18,100  Level Aus ATC (RADAR)
04:59PM -29.1054 152.4875 224° Southwest 255 293 18,100  Level Aus ATC (RADAR)
05:02PM -29.2340 152.3474 224° Southwest 256 295 18,100  Level Aus ATC (RADAR)
05:02PM -29.2469 152.3331 224° Southwest 257 296 18,100  Level Aus ATC (RADAR)
05:03PM -29.2939 152.2818 224° Southwest 256 295 18,100  Level Aus ATC (RADAR)
05:04PM -29.3234 152.2488 224° Southwest 254 292 18,100  Level Aus ATC (RADAR)
05:04PM -29.3617 152.2068 224° Southwest 254 292 18,100  Level Aus ATC (RADAR)
05:05PM -29.3786 152.1879 224° Southwest 255 293 18,100  Level Aus ATC (RADAR)
05:06PM -29.4255 152.1368 223° Southwest 255 293 18,100  Level Aus ATC (RADAR)
05:06PM -29.4508 152.1083 224° Southwest 256 295 18,100  Level Aus ATC (RADAR)
05:07PM -29.4802 152.0753 224° Southwest 255 293 18,100  Level Aus ATC (RADAR)
05:07PM -29.5099 152.0424 224° Southwest 256 295 18,100  Level Aus ATC (RADAR)
05:08PM -29.5397 152.0105 223° Southwest 254 292 18,100  Level Aus ATC (RADAR)
05:08PM -29.5687 151.9766 225° Southwest 255 293 18,100  Level Aus ATC (RADAR)
05:09PM -29.6071 151.9343 224° Southwest 255 293 18,100  Level Aus ATC (RADAR)
05:10PM -29.6283 151.9108 224° Southwest 255 293 18,100  Level Aus ATC (RADAR)
05:11PM -29.7171 151.8114 224° Southwest 256 295 18,100  Level Aus ATC (RADAR)
05:12PM -29.7383 151.7876 224° Southwest 256 295 18,100  Level Aus ATC (RADAR)
05:12PM -29.7680 151.7555 223° Southwest 253 291 18,100  Level Aus ATC (RADAR)
05:13PM -29.8060 151.7135 224° Southwest 252 290 18,100  Level Aus ATC (RADAR)
05:14PM -29.8357 151.6806 224° Southwest 254 292 18,100 -720 Level Aus ATC (RADAR)
05:14PM -29.8649 151.6478 224° Southwest 253 291 17,300 -1,440 Descending Aus ATC (RADAR)
05:15PM -29.8903 151.6198 224° Southwest 255 293 16,600 -1,380 Descending Aus ATC (RADAR)
05:16PM -29.9503 151.5524 224° Southwest 260 299 15,000 -1,380 Descending Aus ATC (RADAR)
05:17PM -29.9843 151.5117 226° Southwest 265 305 14,100 -1,320 Descending Aus ATC (RADAR)
05:17PM -30.0144 151.4789 223° Southwest 260 299 13,400 -1,380 Descending Aus ATC (RADAR)
05:18PM -30.0489 151.4411 223° Southwest 258 297 12,400 -1,620 Descending Aus ATC (RADAR)
05:18PM -30.0705 151.4163 225° Southwest 262 302 11,700 -1,500 Descending Aus ATC (RADAR)
05:19PM -30.1007 151.3815 225° Southwest 262 302 10,900 -1,320 Descending Aus ATC (RADAR)
05:19PM -30.1338 151.3433 225° Southwest 255 293 10,100 -1,320 Descending Aus ATC (RADAR)
05:20PM -30.1670 151.3064 224° Southwest 250 288 9,200 -1,380 Descending Aus ATC (RADAR)
05:21PM -30.2325 151.2319 225° Southwest 248 285 7,400 -1,320 Descending Aus ATC (RADAR)
05:22PM -30.2525 151.2102 223° Southwest 242 278 6,900 -1,320 Descending Aus ATC (RADAR)
05:22PM -30.2806 151.1765 226° Southwest 246 283 6,100 -1,320 Descending Aus ATC (RADAR)
05:23PM -30.3195 151.1325 224° Southwest 236 272 5,100 -720 Descending Aus ATC (RADAR)
05:24PM -30.3445 151.1033 225° Southwest 223 257 5,100  Level Aus ATC (RADAR)
05:26PM -30.4177 151.0202 224° Southwest  Level FlightAware Approximate
05:33PM -30.4500 150.9833 223° Southwest  Level FlightAware Approximate
05:34PM -30.4500 150.9833 223° Southwest  Level FlightAware Approximate
05:35PM -30.4500 150.9833 223° Southwest  Level FlightAware Approximate
05:36PM -30.4500 150.9833 223° Southwest  Level FlightAware Approximate
05:37PM -30.4500 150.9833 223° Southwest  Level FlightAware Approximate
05:38PM -30.4500 150.9833 223° Southwest  Level FlightAware Approximate
05:39PM -30.4500 150.9833 223° Southwest  Level FlightAware Approximate
05:40PM -30.4500 150.9833 223° Southwest  Level FlightAware Approximate
05:41PM -30.4500 150.9833 223° Southwest  Level FlightAware Approximate
05:42PM -30.4500 150.9833 223° Southwest  Level FlightAware Approximate
05:43PM -30.4500 150.9833 223° Southwest  Level FlightAware Approximate
05:44PM -30.4500 150.9833 223° Southwest  Level FlightAware Approximate